Time;durP1;ratioP1;P1;durP2;ratioP2;P2;SDS_P1;SDS_P2;PMS_P1;PMS_P2;Temp;Humidity;BMP_temperature;BMP_pressure;BME280_temperature;BME280_humidity;BME280_pressure;Samples;Min_cycle;Max_cycle;Signal;HPM_P1;HPM_P2
2021/12/19 00:04:00;;;;;;;;;21.33;20.00;;;;;7.43;97.10;103387.09;5057054;28;45444;-64
2021/12/19 00:09:10;;;;;;;;;31.00;26.00;;;;;7.61;97.35;103418.25;5056492;28;45504;-64
2021/12/19 00:11:36;;;;;;;;;28.33;21.67;;;;;7.60;97.85;103424.34;5056452;28;45545;-64
2021/12/19 00:14:02;;;;;;;;;25.67;22.00;;;;;7.55;97.39;103416.34;5057101;28;45333;-64
2021/12/19 00:16:28;;;;;;;;;32.67;23.33;;;;;7.55;97.38;103426.84;5056827;28;46451;-64
2021/12/19 00:18:54;;;;;;;;;30.33;22.00;;;;;7.54;97.65;103429.38;5056789;28;45401;-64
2021/12/19 00:21:21;;;;;;;;;16.67;16.67;;;;;7.55;97.48;103439.94;5056795;28;45392;-64
2021/12/19 00:23:48;;;;;;;;;22.00;16.33;;;;;7.31;97.74;103398.94;5058240;28;45372;-64
2021/12/19 00:26:16;;;;;;;;;27.33;19.33;;;;;7.51;97.71;103438.06;5058530;28;46319;-64
2021/12/19 00:28:43;;;;;;;;;30.33;22.00;;;;;7.43;97.86;103435.16;5058998;28;45273;-64
2021/12/19 00:31:10;;;;;;;;;32.00;24.00;;;;;7.46;97.45;103432.66;5058860;28;45330;-64
2021/12/19 00:33:35;;;;;;;;;28.33;23.33;;;;;7.38;97.99;103415.78;5058849;28;45381;-64
2021/12/19 00:36:02;;;;;;;;;31.67;23.67;;;;;7.47;98.15;103431.81;5058703;28;46701;-64
2021/12/19 00:38:27;;;;;;;;;31.67;21.67;;;;;7.22;97.69;103382.91;5058635;28;45319;-64
2021/12/19 00:40:53;;;;;;;;;30.67;26.33;;;;;7.45;97.54;103416.84;5057968;28;45460;-64
2021/12/19 00:43:25;;;;;;;;;23.67;20.00;;;;;7.41;97.35;103413.25;5059032;28;45348;-64
2021/12/19 00:45:53;;;;;;;;;28.00;22.33;;;;;7.43;98.24;103423.78;5058039;28;46408;-64
2021/12/19 00:48:18;;;;;;;;;31.67;22.33;;;;;7.38;97.78;103412.25;5058413;28;45402;-64
2021/12/19 00:50:45;;;;;;;;;31.67;24.67;;;;;7.38;98.29;103414.88;5058499;28;45218;-64
2021/12/19 00:53:10;;;;;;;;;35.67;22.67;;;;;7.37;98.46;103419.22;5058644;28;45403;-64
2021/12/19 00:55:36;;;;;;;;;38.00;23.00;;;;;7.44;98.49;103421.22;5058204;28;46385;-64
2021/12/19 00:58:03;;;;;;;;;29.33;23.00;;;;;7.44;98.34;103415.97;5058192;28;45411;-64
2021/12/19 01:00:32;;;;;;;;;28.33;19.00;;;;;7.46;97.73;103413.41;5058432;28;45373;-64
2021/12/19 01:02:59;;;;;;;;;32.67;23.00;;;;;7.36;98.11;103385.09;5058432;28;45423;-64
2021/12/19 01:05:29;;;;;;;;;31.33;22.67;;;;;7.38;98.12;103399.13;5058032;28;46254;-64
2021/12/19 01:07:55;;;;;;;;;38.67;24.33;;;;;7.36;98.63;103406.06;5058193;28;45413;-64
2021/12/19 01:10:21;;;;;;;;;42.00;25.00;;;;;7.36;97.94;103396.47;5058263;28;45332;-64
2021/12/19 01:12:46;;;;;;;;;23.33;22.33;;;;;7.38;97.39;103396.50;5058213;28;45368;-64
2021/12/19 01:15:14;;;;;;;;;25.67;21.33;;;;;7.42;97.78;103406.28;5057917;28;46389;-64
2021/12/19 01:17:40;;;;;;;;;30.67;21.00;;;;;7.14;97.39;103364.31;5057945;28;45230;-64
2021/12/19 01:20:14;;;;;;;;;33.67;24.00;;;;;7.27;97.26;103386.56;5057855;28;45459;-64
2021/12/19 01:22:40;;;;;;;;;25.67;21.67;;;;;7.27;97.60;103401.41;5057986;28;45427;-64
2021/12/19 01:25:06;;;;;;;;;29.67;21.00;;;;;7.22;98.19;103401.25;5057690;28;46796;-64
2021/12/19 01:27:31;;;;;;;;;35.00;24.00;;;;;7.17;98.76;103400.19;5057780;28;45391;-64
2021/12/19 01:29:56;;;;;;;;;35.33;28.00;;;;;7.16;98.28;103393.19;5057739;28;45313;-64
2021/12/19 01:32:22;;;;;;;;;25.67;23.67;;;;;7.21;98.30;103395.97;5057886;28;45284;-64
2021/12/19 01:34:47;;;;;;;;;36.33;22.00;;;;;7.19;98.07;103388.06;5057515;28;45557;-64
2021/12/19 01:37:13;;;;;;;;;31.67;21.00;;;;;7.24;97.48;103386.47;5057445;28;45389;-64
2021/12/19 01:39:41;;;;;;;;;32.00;22.33;;;;;7.27;97.64;103389.19;5057596;28;45456;-64
2021/12/19 01:42:10;;;;;;;;;26.00;23.33;;;;;7.22;97.39;103382.00;5057446;28;45465;-64
2021/12/19 01:44:36;;;;;;;;;28.00;22.00;;;;;7.25;96.63;103403.09;5057057;28;46478;-64
2021/12/19 01:47:02;;;;;;;;;27.33;22.67;;;;;7.15;97.08;103383.53;5057210;28;45386;-64
2021/12/19 01:49:27;;;;;;;;;32.67;24.67;;;;;6.97;97.29;103353.25;5057439;28;45435;-64
2021/12/19 01:51:53;;;;;;;;;23.33;23.00;;;;;7.18;97.82;103394.13;5057294;28;45368;-64
2021/12/19 01:54:19;;;;;;;;;41.00;25.00;;;;;7.20;97.83;103394.19;5056241;28;46113;-64
2021/12/19 01:56:44;;;;;;;;;31.67;25.33;;;;;7.20;97.77;103392.44;5057035;28;45428;-64
2021/12/19 01:59:10;;;;;;;;;28.00;23.67;;;;;7.26;97.72;103402.25;5057491;28;45420;-64
2021/12/19 02:01:48;;;;;;;;;32.33;23.33;;;;;7.25;97.13;103398.75;5057287;28;45360;-64
2021/12/19 02:04:16;;;;;;;;;39.33;29.00;;;;;7.27;97.61;103399.66;5056824;28;45337;-64
2021/12/19 02:06:41;;;;;;;;;33.33;29.00;;;;;7.24;97.61;103391.72;5057107;28;45478;-64
2021/12/19 02:09:08;;;;;;;;;36.33;27.00;;;;;7.25;97.38;103382.13;5057094;28;45275;-64
2021/12/19 02:11:34;;;;;;;;;38.00;31.33;;;;;7.22;96.65;103385.53;5056877;28;45600;-64
2021/12/19 02:14:00;;;;;;;;;32.67;24.00;;;;;7.21;96.98;103390.72;5057005;28;45352;-64
2021/12/19 02:16:26;;;;;;;;;22.50;18.75;;;;;7.17;95.39;103399.31;5056790;28;45310;-64
2021/12/19 02:18:51;;;;;;;;;24.67;17.00;;;;;7.12;96.00;103400.03;5057228;28;45312;-64
2021/12/19 02:21:17;;;;;;;;;22.33;16.33;;;;;7.15;95.80;103404.50;5057212;28;45353;-64
2021/12/19 02:23:42;;;;;;;;;15.75;11.25;;;;;7.12;95.67;103394.81;5056677;28;46873;-64
2021/12/19 02:26:08;;;;;;;;;19.67;14.00;;;;;6.94;95.25;103367.97;5057080;28;45396;-64
2021/12/19 02:28:33;;;;;;;;;15.00;11.67;;;;;7.06;96.35;103388.47;5056957;28;45959;-64
2021/12/19 02:30:58;;;;;;;;;20.67;14.00;;;;;7.07;95.95;103380.69;5057260;28;45395;-64
2021/12/19 02:33:26;;;;;;;;;21.00;17.00;;;;;7.09;95.74;103378.97;5056584;28;46570;-64
2021/12/19 02:36:07;;;;;;;;;23.33;16.67;;;;;7.01;95.48;103369.09;5056770;28;45414;-64
2021/12/19 02:39:16;;;;;;;;;26.67;18.00;;;;;7.00;95.78;103376.06;5056808;28;45483;-64
2021/12/19 02:49:23;;;;;;;;;23.00;15.00;;;;;6.86;95.97;103366.81;5056738;28;45326;-64
2021/12/19 02:51:50;;;;;;;;;21.67;17.00;;;;;6.87;96.02;103366.88;5056709;28;45507;-64
2021/12/19 02:54:15;;;;;;;;;25.33;17.33;;;;;6.78;96.40;103356.06;5056325;28;46549;-64
2021/12/19 02:56:40;;;;;;;;;23.00;19.00;;;;;6.85;96.73;103370.28;5056371;28;45363;-64
2021/12/19 02:59:06;;;;;;;;;26.33;17.67;;;;;6.76;96.50;103349.91;5056561;28;45459;-64
2021/12/19 03:01:31;;;;;;;;;25.67;20.67;;;;;6.82;96.86;103362.31;5055293;28;45357;-64
2021/12/19 03:03:57;;;;;;;;;25.33;20.00;;;;;6.80;97.74;103351.78;5056497;28;45421;-64
2021/12/19 03:06:22;;;;;;;;;29.00;19.33;;;;;6.79;97.41;103350.88;5060051;28;45348;-64
2021/12/19 03:08:51;;;;;;;;;25.67;21.00;;;;;6.75;97.78;103348.09;5059857;28;45278;-64
2021/12/19 03:12:03;;;;;;;;;31.00;23.33;;;;;6.75;98.21;103345.47;5059898;28;45498;-64
2021/12/19 03:19:49;;;;;;;;;30.33;22.67;;;;;6.84;98.35;103327.50;5059790;28;45357;-64
2021/12/19 03:22:15;;;;;;;;;29.67;25.00;;;;;6.76;98.62;103308.00;5059857;28;45333;-64
2021/12/19 03:24:40;;;;;;;;;28.33;22.00;;;;;6.89;98.53;103328.53;5059568;28;47286;-64
2021/12/19 03:27:06;;;;;;;;;32.00;21.00;;;;;6.91;97.98;103324.25;5059483;28;45457;-64
2021/12/19 03:29:31;;;;;;;;;40.00;26.33;;;;;6.82;98.21;103310.81;5059578;28;45872;-64
2021/12/19 03:31:56;;;;;;;;;29.67;25.33;;;;;6.96;98.21;103330.53;5059587;28;45411;-64
2021/12/19 03:34:22;;;;;;;;;31.00;24.33;;;;;6.93;98.27;103327.81;5059333;28;46275;-64
2021/12/19 03:36:48;;;;;;;;;25.33;24.00;;;;;6.94;98.67;103324.34;5059380;28;45305;-64
2021/12/19 03:39:25;;;;;;;;;38.33;28.33;;;;;6.97;98.46;103328.78;5059600;28;45549;-64
2021/12/19 03:41:54;;;;;;;;;39.67;30.67;;;;;6.88;98.64;103304.91;5059301;28;45518;-64
2021/12/19 03:44:19;;;;;;;;;33.33;27.00;;;;;6.91;98.83;103312.88;5059087;28;46045;-64
2021/12/19 03:46:45;;;;;;;;;38.33;28.00;;;;;6.96;98.14;103299.09;5058979;28;45506;-64
2021/12/19 03:49:11;;;;;;;;;34.33;26.67;;;;;6.98;97.87;103304.38;5059458;28;45873;-64
2021/12/19 03:51:36;;;;;;;;;30.67;21.67;;;;;6.91;98.70;103298.06;5059504;28;45385;-64
2021/12/19 03:54:02;;;;;;;;;29.67;22.00;;;;;6.90;97.90;103304.13;5059221;28;45451;-64
2021/12/19 03:56:27;;;;;;;;;25.67;20.67;;;;;6.84;98.09;103296.06;5059015;28;45407;-64
2021/12/19 03:58:54;;;;;;;;;22.67;18.67;;;;;6.79;97.44;103297.63;5058944;28;45419;-64
2021/12/19 04:01:19;;;;;;;;;21.67;17.67;;;;;6.74;98.06;103286.13;5059225;28;45420;-64
2021/12/19 04:03:46;;;;;;;;;18.33;17.67;;;;;6.85;97.97;103300.44;5058876;28;46519;-64
2021/12/19 04:06:11;;;;;;;;;24.33;17.33;;;;;6.91;97.79;103308.53;5058988;28;45351;-64
2021/12/19 04:08:37;;;;;;;;;30.67;21.00;;;;;6.82;96.65;103289.00;5058935;28;45440;-64
2021/12/19 04:11:02;;;;;;;;;29.00;16.33;;;;;6.78;96.15;103298.47;5058928;28;45550;-64
2021/12/19 04:13:28;;;;;;;;;28.67;17.00;;;;;6.75;96.94;103291.41;5058760;28;45447;-64
2021/12/19 04:15:53;;;;;;;;;29.33;16.00;;;;;6.71;97.40;103289.53;5057743;28;45333;-64
2021/12/19 04:18:19;;;;;;;;;18.67;15.67;;;;;6.69;97.13;103288.56;5059186;28;45232;-64
2021/12/19 04:20:45;;;;;;;;;22.00;17.00;;;;;6.66;97.25;103282.34;5059040;28;45314;-64
2021/12/19 04:23:10;;;;;;;;;29.33;19.00;;;;;6.60;97.45;103283.91;5058413;28;46006;-64
2021/12/19 04:25:36;;;;;;;;;25.00;16.67;;;;;6.47;98.52;103260.75;5058534;28;45490;-64
2021/12/19 04:28:01;;;;;;;;;24.67;21.00;;;;;6.45;98.61;103265.06;5058647;28;45421;-64
2021/12/19 04:30:27;;;;;;;;;34.00;20.67;;;;;6.44;99.02;103256.28;5058838;28;45460;-64
2021/12/19 04:33:03;;;;;;;;;31.33;22.33;;;;;6.54;99.23;103269.72;5048222;28;45329;-64
2021/12/19 04:35:32;;;;;;;;;23.00;19.00;;;;;6.56;99.08;103270.66;5046486;28;45369;-64
2021/12/19 04:38:49;;;;;;;;;21.33;18.00;;;;;6.60;98.40;103264.69;5058703;28;45429;-64
2021/12/19 05:00:06;;;;;;;;;26.33;19.00;;;;;6.45;98.81;103238.88;5058310;28;45465;-64
2021/12/19 05:15:52;;;;;;;;;20.00;15.00;;;;;6.61;97.04;103235.06;5057719;28;45779;-64
2021/12/19 05:18:19;;;;;;;;;16.25;13.25;;;;;6.58;96.93;103228.00;5057680;28;45511;-64
2021/12/19 05:20:56;;;;;;;;;21.00;15.00;;;;;6.60;97.23;103223.69;5057878;28;45490;-64
2021/12/19 05:24:20;;;;;;;;;18.33;16.00;;;;;6.70;96.87;103237.97;5057851;28;45581;-64
2021/12/19 05:26:11;;;;;;;;;18.33;14.00;;;;;6.67;96.74;103231.78;5056794;28;45550;-64
2021/12/19 05:28:36;;;;;;;;;22.50;15.50;;;;;6.67;96.90;103244.88;5057412;28;45319;-64
2021/12/19 05:31:03;;;;;;;;;22.67;17.00;;;;;6.62;97.21;103229.88;5058054;28;45295;-64
2021/12/19 05:33:28;;;;;;;;;17.00;13.67;;;;;6.63;96.69;103231.63;5057869;28;45431;-64
2021/12/19 05:36:16;;;;;;;;;21.75;14.25;;;;;6.64;96.76;103229.94;5057678;28;45463;-65
2021/12/19 05:45:11;;;;;;;;;20.25;13.75;;;;;6.49;96.76;103225.06;5057830;28;45433;-64
2021/12/19 05:46:56;;;;;;;;;17.25;14.75;;;;;6.45;97.90;103231.91;5056990;28;46157;-65
2021/12/19 05:49:22;;;;;;;;;20.33;14.00;;;;;6.50;97.54;103232.06;5057366;28;45470;-64
2021/12/19 05:51:48;;;;;;;;;23.33;15.33;;;;;6.49;98.39;103226.78;5057498;28;45230;-64
2021/12/19 05:54:13;;;;;;;;;22.33;13.67;;;;;6.53;98.14;103232.16;5057541;28;45185;-65
2021/12/19 05:56:41;;;;;;;;;21.00;17.67;;;;;6.51;97.71;103222.50;5057050;28;46307;-65
2021/12/19 05:59:06;;;;;;;;;22.25;14.75;;;;;6.54;98.22;103228.72;5057106;28;45467;-65
2021/12/19 06:01:32;;;;;;;;;17.50;10.75;;;;;6.53;97.87;103218.19;5057158;28;45476;-65
2021/12/19 06:03:58;;;;;;;;;15.33;15.00;;;;;6.53;98.00;103211.22;5057324;28;45377;-64
2021/12/19 06:06:26;;;;;;;;;29.00;22.33;;;;;6.59;98.30;103226.25;5056972;28;46301;-64
2021/12/19 06:08:52;;;;;;;;;17.33;12.67;;;;;6.61;98.24;103221.97;5057145;28;45375;-64
2021/12/19 06:11:17;;;;;;;;;21.33;16.33;;;;;6.59;97.60;103227.16;5057141;28;45499;-64
2021/12/19 06:13:43;;;;;;;;;19.50;14.00;;;;;6.52;98.11;103209.47;5057067;28;45538;-64
2021/12/19 06:16:09;;;;;;;;;25.25;17.50;;;;;6.55;98.05;103224.38;5056826;28;46517;-64
2021/12/19 06:18:34;;;;;;;;;18.67;13.33;;;;;6.54;98.56;103228.72;5057110;28;45427;-65
2021/12/19 06:21:00;;;;;;;;;21.33;14.00;;;;;6.56;98.48;103223.53;5056917;28;45447;-64
2021/12/19 06:23:25;;;;;;;;;21.75;11.50;;;;;6.55;98.43;103219.13;5057181;28;45391;-64
2021/12/19 06:25:50;;;;;;;;;24.33;17.00;;;;;6.58;99.30;103219.25;5057110;28;45410;-64
2021/12/19 06:28:18;;;;;;;;;19.67;15.00;;;;;6.60;98.08;103217.56;5056838;28;45424;-65
2021/12/19 06:30:43;;;;;;;;;25.75;15.50;;;;;6.55;98.51;103208.66;5056934;28;45411;-65
2021/12/19 06:33:09;;;;;;;;;26.00;15.33;;;;;6.50;98.85;103205.00;5057202;28;45309;-64
2021/12/19 06:35:35;;;;;;;;;15.00;12.50;;;;;6.57;99.57;103207.00;5056673;28;45575;-64
2021/12/19 06:38:00;;;;;;;;;23.25;16.50;;;;;6.55;98.83;103192.97;5056605;28;45383;-64
2021/12/19 06:40:26;;;;;;;;;19.67;16.33;;;;;6.56;98.40;103193.00;5059548;28;45459;-64
2021/12/19 06:42:52;;;;;;;;;23.33;14.33;;;;;6.55;99.44;103195.56;5060612;28;45467;-64
2021/12/19 06:45:19;;;;;;;;;19.33;16.00;;;;;6.62;99.50;103203.72;5060159;28;46182;-64
2021/12/19 06:47:45;;;;;;;;;20.67;17.67;;;;;6.63;99.63;103201.97;5060054;28;45526;-64
2021/12/19 06:50:12;;;;;;;;;22.00;17.00;;;;;6.68;99.44;103199.50;5060388;28;45417;-64
2021/12/19 06:52:39;;;;;;;;;24.33;19.33;;;;;6.64;99.17;103193.28;5060082;28;45408;-64
2021/12/19 06:55:06;;;;;;;;;22.50;17.75;;;;;6.62;99.25;103201.09;5060116;28;46535;-64
2021/12/19 06:57:32;;;;;;;;;24.33;18.00;;;;;6.53;99.11;103187.66;5060032;28;45326;-64
2021/12/19 06:59:57;;;;;;;;;25.67;14.00;;;;;6.55;99.80;103175.53;5059904;28;45309;-64
2021/12/19 07:02:23;;;;;;;;;23.25;16.50;;;;;6.61;99.17;103180.97;5060288;28;45372;-64
2021/12/19 07:04:49;;;;;;;;;27.00;17.67;;;;;6.61;99.27;103186.22;5059739;28;45467;-64
2021/12/19 07:07:14;;;;;;;;;22.33;16.00;;;;;6.58;99.83;103180.88;5060116;28;45452;-64
2021/12/19 07:09:40;;;;;;;;;25.67;21.00;;;;;6.61;100.00;103180.97;5060109;28;45520;-64
2021/12/19 07:12:07;;;;;;;;;31.33;17.67;;;;;6.65;99.96;103181.97;5060173;28;45362;-64
2021/12/19 07:14:32;;;;;;;;;31.33;21.67;;;;;6.64;100.00;103182.81;5059635;28;46418;-64
2021/12/19 07:16:58;;;;;;;;;26.00;16.67;;;;;6.59;99.94;103166.03;5059711;28;45468;-64
2021/12/19 07:19:23;;;;;;;;;16.33;13.67;;;;;6.62;99.77;103174.00;5060055;28;45384;-64
2021/12/19 07:21:49;;;;;;;;;25.33;16.67;;;;;6.65;100.00;103176.75;5059910;28;45332;-64
2021/12/19 07:24:14;;;;;;;;;24.00;20.33;;;;;6.66;100.00;103164.53;5059654;28;46237;-64
2021/12/19 07:26:40;;;;;;;;;25.33;16.67;;;;;6.73;100.00;103171.75;5059916;28;45764;-64
2021/12/19 07:29:05;;;;;;;;;21.33;19.67;;;;;6.73;99.89;103166.50;5059374;28;45875;-64
2021/12/19 07:31:33;;;;;;;;;31.00;19.67;;;;;6.78;100.00;103171.06;5059602;28;45444;-64
2021/12/19 07:33:58;;;;;;;;;40.00;23.33;;;;;6.82;99.20;103177.28;5059353;28;45523;-65
2021/12/19 07:36:29;;;;;;;;;23.67;20.00;;;;;6.79;100.00;103178.06;5059504;28;45224;-65
2021/12/19 07:39:01;;;;;;;;;30.33;22.33;;;;;6.74;100.00;103158.72;5059489;28;45437;-64
2021/12/19 07:41:26;;;;;;;;;28.67;23.67;;;;;6.91;99.95;103181.91;5059519;28;45432;-64
2021/12/19 07:43:52;;;;;;;;;23.33;20.00;;;;;6.94;99.91;103182.00;5059098;28;46090;-64
2021/12/19 07:46:17;;;;;;;;;33.00;22.67;;;;;6.92;99.07;103174.09;5058995;28;45484;-64
2021/12/19 07:48:43;;;;;;;;;28.33;19.67;;;;;6.99;99.19;103172.56;5059253;28;45737;-64
2021/12/19 07:51:08;;;;;;;;;27.67;20.00;;;;;6.94;98.97;103171.53;5058408;28;45416;-64
2021/12/19 07:53:33;;;;;;;;;30.00;19.00;;;;;6.94;98.74;103168.91;5059217;28;46550;-64
2021/12/19 07:55:59;;;;;;;;;19.33;15.67;;;;;6.90;98.38;103165.31;5059275;28;45423;-64
2021/12/19 07:58:25;;;;;;;;;21.50;16.75;;;;;6.93;97.65;103169.78;5058972;28;45289;-64
2021/12/19 08:00:50;;;;;;;;;18.33;16.00;;;;;6.82;98.26;103161.56;5059036;28;45553;-64
2021/12/19 08:03:15;;;;;;;;;23.33;17.67;;;;;6.87;98.18;103175.69;5058987;28;47277;-64
2021/12/19 08:05:41;;;;;;;;;19.75;14.00;;;;;6.91;98.58;103177.59;5059023;28;45445;-64
2021/12/19 08:08:06;;;;;;;;;29.67;21.33;;;;;6.94;99.14;103177.69;5057776;28;45363;-64
2021/12/19 08:12:59;;;;;;;;;31.67;23.00;;;;;6.90;99.48;103156.59;5058701;28;45506;-64
2021/12/19 08:15:24;;;;;;;;;26.33;23.00;;;;;7.03;99.38;103177.06;5058797;28;45234;-64
2021/12/19 08:17:50;;;;;;;;;30.33;19.00;;;;;7.04;99.08;103167.47;5058803;28;45443;-64
2021/12/19 08:20:17;;;;;;;;;34.33;23.33;;;;;7.08;98.83;103167.63;5059237;28;45443;-64
2021/12/19 08:22:43;;;;;;;;;31.00;22.00;;;;;7.05;98.45;103164.91;5058509;28;46529;-64
2021/12/19 08:25:09;;;;;;;;;16.33;16.33;;;;;7.07;99.03;103162.34;5058722;28;45434;-65
2021/12/19 08:27:34;;;;;;;;;30.33;22.67;;;;;7.02;99.32;103145.59;5058801;28;45341;-65
2021/12/19 08:30:01;;;;;;;;;34.00;23.67;;;;;7.05;98.54;103158.78;5058675;28;45348;-65
2021/12/19 08:32:27;;;;;;;;;42.00;35.00;;;;;7.13;99.48;103170.38;5058952;28;45694;-64
2021/12/19 08:34:52;;;;;;;;;32.00;19.67;;;;;7.08;98.52;103153.63;5058276;28;45434;-64
2021/12/19 08:37:18;;;;;;;;;28.33;23.67;;;;;7.22;98.18;103169.75;5058776;28;45233;-65
2021/12/19 08:39:45;;;;;;;;;36.33;24.67;;;;;7.17;97.90;103158.28;5058757;28;45369;-65
2021/12/19 08:42:10;;;;;;;;;21.33;19.00;;;;;7.20;97.86;103164.47;5058237;28;45364;-64
2021/12/19 08:44:37;;;;;;;;;29.00;24.00;;;;;7.28;97.40;103167.34;5058292;28;45371;-64
2021/12/19 08:47:03;;;;;;;;;31.00;23.33;;;;;7.25;98.17;103173.38;5057901;28;45424;-64
2021/12/19 08:49:28;;;;;;;;;33.33;22.00;;;;;7.20;98.08;103154.00;5058277;28;45499;-64
2021/12/19 08:51:54;;;;;;;;;32.33;22.33;;;;;7.26;97.89;103159.44;5058041;28;45511;-64
2021/12/19 08:54:20;;;;;;;;;39.33;29.67;;;;;7.29;98.02;103162.16;5058142;28;45471;-64
2021/12/19 08:56:45;;;;;;;;;31.33;22.33;;;;;7.22;97.37;103159.28;5058325;28;45329;-64
2021/12/19 08:59:11;;;;;;;;;33.00;27.33;;;;;7.25;98.43;103162.91;5057867;28;45268;-64
2021/12/19 09:01:37;;;;;;;;;16.67;14.67;;;;;7.26;98.53;103164.69;5057522;28;46266;-64
2021/12/19 09:04:03;;;;;;;;;23.67;21.00;;;;;7.22;98.39;103154.94;5058044;28;45318;-64
2021/12/19 09:06:28;;;;;;;;;35.67;21.00;;;;;7.28;98.41;103151.63;5058116;28;45351;-64
2021/12/19 09:08:54;;;;;;;;;35.00;22.67;;;;;7.33;98.55;103155.25;5058058;28;45222;-64
2021/12/19 09:11:20;;;;;;;;;30.00;25.00;;;;;7.29;98.29;103154.28;5058005;28;45617;-64
2021/12/19 09:13:45;;;;;;;;;29.00;18.00;;;;;7.38;98.34;103164.16;5057411;28;45487;-64
2021/12/19 09:16:11;;;;;;;;;31.33;24.00;;;;;7.39;98.06;103165.94;5057885;28;45732;-64
2021/12/19 09:18:37;;;;;;;;;26.00;18.50;;;;;7.38;97.49;103163.25;5058014;28;45464;-64
2021/12/19 09:21:02;;;;;;;;;32.00;18.00;;;;;7.28;98.11;103142.03;5057486;28;45367;-63
2021/12/19 09:23:28;;;;;;;;;20.67;16.67;;;;;7.39;98.09;103168.56;5057586;28;45400;-64
2021/12/19 09:25:53;;;;;;;;;26.00;21.00;;;;;7.39;98.51;103167.66;5057869;28;45348;-64
2021/12/19 09:28:19;;;;;;;;;21.67;16.33;;;;;7.30;97.09;103147.31;5057883;28;45467;-64
2021/12/19 09:30:45;;;;;;;;;27.33;20.00;;;;;7.34;97.83;103164.91;5057408;28;46485;-64
2021/12/19 09:33:10;;;;;;;;;24.67;16.33;;;;;7.32;97.24;103156.13;5057744;28;46050;-64
2021/12/19 09:35:36;;;;;;;;;25.00;16.00;;;;;7.35;97.48;103156.22;5057757;28;45642;-64
2021/12/19 09:38:03;;;;;;;;;24.00;17.33;;;;;7.41;97.22;103158.13;5056307;28;45290;-64
2021/12/19 09:40:34;;;;;;;;;15.33;12.67;;;;;7.42;97.08;103158.16;5057119;28;46548;-65
2021/12/19 09:43:04;;;;;;;;;14.75;10.75;;;;;7.46;96.40;103167.91;5057237;28;46123;-64
2021/12/19 09:45:32;;;;;;;;;11.50;9.50;;;;;7.46;95.62;103159.13;5057383;28;45254;-65
2021/12/19 09:47:58;;;;;;;;;4.25;4.25;;;;;7.51;94.67;103168.03;5056256;28;45618;-64
2021/12/19 09:50:24;;;;;;;;;13.75;5.25;;;;;7.53;94.31;103163.72;5057454;28;45815;-64
2021/12/19 09:52:50;;;;;;;;;4.25;4.25;;;;;7.56;94.61;103162.91;5057264;28;45269;-65
2021/12/19 09:55:21;;;;;;;;;5.00;4.00;;;;;7.54;93.73;103162.88;5057656;28;45245;-64
2021/12/19 09:57:47;;;;;;;;;6.25;5.00;;;;;7.51;94.04;103154.94;5057092;28;45376;-64
2021/12/19 10:00:14;;;;;;;;;8.00;5.00;;;;;7.53;94.66;103153.22;5056723;28;45512;-64
2021/12/19 10:02:39;;;;;;;;;12.25;9.25;;;;;7.51;94.97;103152.31;5057038;28;45390;-65
2021/12/19 10:05:17;;;;;;;;;10.25;6.50;;;;;7.53;95.49;103153.22;5057302;28;45501;-64
2021/12/19 10:07:48;;;;;;;;;34.67;21.00;;;;;7.49;95.67;103135.63;5057420;28;45247;-65
2021/12/19 10:10:24;;;;;;;;;24.00;22.33;;;;;7.57;95.84;103151.59;5056918;28;46551;-64
2021/12/19 10:12:57;;;;;;;;;46.67;32.67;;;;;7.49;96.13;103133.91;5056830;28;45319;-64
2021/12/19 10:15:31;;;;;;;;;29.33;23.00;;;;;7.54;96.29;103149.78;5055281;28;45329;-65
2021/12/19 10:18:01;;;;;;;;;26.00;15.33;;;;;7.54;96.78;103149.78;5057334;28;45415;-65
2021/12/19 10:20:40;;;;;;;;;21.67;18.33;;;;;7.55;96.42;103151.56;5056928;28;46398;-65
2021/12/19 10:23:21;;;;;;;;;18.67;15.67;;;;;7.54;96.60;103148.84;5056938;28;45223;-65
2021/12/19 10:26:01;;;;;;;;;20.33;13.33;;;;;7.56;96.33;103141.94;5056710;28;45488;-65
2021/12/19 10:28:28;;;;;;;;;20.67;16.00;;;;;7.52;95.57;103134.84;5056929;28;45491;-65
2021/12/19 10:30:55;;;;;;;;;18.67;14.33;;;;;7.49;95.87;103131.28;5056654;28;46196;-65
2021/12/19 10:33:27;;;;;;;;;17.67;14.33;;;;;7.56;95.71;103145.44;5056855;28;45298;-65
2021/12/19 10:35:56;;;;;;;;;28.33;19.00;;;;;7.57;95.25;103144.59;5056872;28;45345;-65
2021/12/19 10:38:59;;;;;;;;;55.67;41.00;;;;;7.56;96.54;103132.34;5057262;28;45461;-65
2021/12/19 10:41:33;;;;;;;;;12.67;12.67;;;;;7.57;94.20;103133.25;5014044;28;46409;-65
2021/12/19 10:45:29;;;;;;;;;29.33;18.67;;;;;7.48;95.68;103116.41;5014124;28;45554;-64
2021/12/19 10:47:20;;;;;;;;;17.00;12.50;;;;;7.62;96.05;103129.91;5014108;28;45469;-65
2021/12/19 10:49:46;;;;;;;;;15.00;9.25;;;;;7.60;93.95;103112.34;5014710;28;45407;-65
2021/12/19 10:52:11;;;;;;;;;6.50;6.25;;;;;7.67;93.95;103125.66;5014711;28;45389;-65
2021/12/19 10:54:56;;;;;;;;;8.00;5.50;;;;;7.65;93.45;103110.72;5014472;28;45450;-65
2021/12/19 10:57:31;;;;;;;;;8.50;5.00;;;;;7.73;92.96;103114.47;5014520;28;45468;-65
2021/12/19 10:59:57;;;;;;;;;7.75;5.50;;;;;7.73;92.13;103103.09;5014271;28;45439;-65
2021/12/19 11:02:37;;;;;;;;;8.50;7.50;;;;;7.68;92.61;103092.44;5013699;28;46321;-65
2021/12/19 11:05:03;;;;;;;;;12.75;6.25;;;;;7.70;91.57;103085.53;5014217;28;45310;-65
2021/12/19 11:07:29;;;;;;;;;5.75;5.75;;;;;7.59;92.44;103058.13;5013048;28;45419;-65
2021/12/19 11:09:54;;;;;;;;;8.00;5.50;;;;;7.87;92.49;103090.31;5006245;28;45255;-65
2021/12/19 11:12:19;;;;;;;;;9.00;6.25;;;;;7.90;93.05;103095.66;5013889;28;45488;-65
2021/12/19 11:14:47;;;;;;;;;13.50;12.00;;;;;7.89;92.63;103081.66;5019356;28;45542;-66
2021/12/19 11:17:20;;;;;;;;;8.75;7.75;;;;;7.85;92.32;103071.94;5051175;28;45476;-76
2021/12/19 11:19:48;;;;;;;;;12.00;9.75;;;;;7.91;92.48;103082.56;5050682;28;45464;-65
2021/12/19 11:22:23;;;;;;;;;22.00;16.00;;;;;7.93;92.91;103074.75;5043882;28;46728;-66
2021/12/19 11:24:48;;;;;;;;;16.00;11.75;;;;;7.92;92.18;103057.25;5051621;28;45462;-65
2021/12/19 11:27:14;;;;;;;;;17.33;15.67;;;;;7.90;92.68;103059.84;5057337;28;45465;-67
2021/12/19 11:29:42;;;;;;;;;18.25;14.00;;;;;7.97;93.16;103053.00;5044991;28;45456;-67
2021/12/19 11:32:09;;;;;;;;;13.75;10.00;;;;;7.94;92.85;103040.69;5057747;28;47182;-67
2021/12/19 11:35:10;;;;;;;;;5.50;5.25;;;;;7.97;92.38;103046.03;5053259;28;45231;-64
2021/12/19 11:37:41;;;;;;;;;8.25;8.25;;;;;8.01;92.89;103046.97;5045474;28;45342;-66
2021/12/19 11:40:09;;;;;;;;;9.75;8.25;;;;;8.05;92.75;103055.84;5053457;28;45555;-69
2021/12/19 11:42:37;;;;;;;;;30.33;28.33;;;;;8.06;92.82;103044.47;5051666;28;48505;-65
2021/12/19 11:51:04;;;;;;;;;9.50;8.75;;;;;8.04;92.75;103027.81;5056952;28;45420;-65
2021/12/19 11:53:34;;;;;;;;;9.00;7.75;;;;;8.08;92.05;103037.53;5050081;28;46679;-64
2021/12/19 11:56:04;;;;;;;;;7.25;6.25;;;;;8.07;92.59;103027.88;5059147;28;45482;-64
2021/12/19 11:58:32;;;;;;;;;8.00;5.25;;;;;8.07;92.17;103020.00;5058970;28;45841;-64
2021/12/19 12:01:05;;;;;;;;;5.00;5.00;;;;;8.05;92.72;103005.97;5058383;28;45371;-64
2021/12/19 12:03:37;;;;;;;;;8.50;8.50;;;;;8.04;92.29;103012.06;5058944;28;45483;-64
2021/12/19 12:06:09;;;;;;;;;12.75;9.50;;;;;8.09;92.69;103019.22;5058864;28;45317;-64
2021/12/19 12:08:35;;;;;;;;;11.50;8.75;;;;;8.11;92.74;103017.50;5056627;28;45450;-64
2021/12/19 12:11:01;;;;;;;;;23.00;18.67;;;;;8.14;92.38;103014.06;5038563;28;45432;-64
2021/12/19 12:13:33;;;;;;;;;34.00;27.67;;;;;8.11;92.60;103011.38;5038580;28;45578;-64
2021/12/19 12:16:29;;;;;;;;;28.00;22.67;;;;;8.11;92.61;103009.63;5039624;28;45314;-64
2021/12/19 12:18:57;;;;;;;;;27.67;24.67;;;;;8.10;92.34;102999.97;5056598;28;45341;-64
2021/12/19 12:21:29;;;;;;;;;38.33;22.67;;;;;8.10;92.25;102989.47;5052599;28;45462;-64
2021/12/19 12:23:59;;;;;;;;;33.00;25.67;;;;;8.08;91.77;102992.94;5058729;28;45463;-64
2021/12/19 12:26:34;;;;;;;;;22.25;16.25;;;;;8.05;92.63;102985.88;5058463;28;45342;-65
2021/12/19 12:29:00;;;;;;;;;23.33;14.33;;;;;8.08;92.89;102985.94;5058360;28;45440;-65